sensor_id;sensor_type;location;lat;lon;timestamp;pressure;altitude;pressure_sealevel;temperature;humidity
19108;BME280;9686;48.832;9.126;2022-07-10T00:00:27;98823.75;;;18.46;100.00
19108;BME280;9686;48.832;9.126;2022-07-10T00:02:54;98818.50;;;18.45;100.00
19108;BME280;9686;48.832;9.126;2022-07-10T00:05:19;98823.94;;;18.40;100.00
19108;BME280;9686;48.832;9.126;2022-07-10T00:07:45;98821.41;;;18.36;100.00
19108;BME280;9686;48.832;9.126;2022-07-10T00:10:11;98824.06;;;18.36;100.00
19108;BME280;9686;48.832;9.126;2022-07-10T00:12:37;98814.91;;;18.49;100.00
19108;BME280;9686;48.832;9.126;2022-07-10T00:15:05;98812.31;;;18.46;100.00
19108;BME280;9686;48.832;9.126;2022-07-10T00:17:32;98816.75;;;18.45;100.00
19108;BME280;9686;48.832;9.126;2022-07-10T00:22:35;98814.91;;;18.49;100.00
19108;BME280;9686;48.832;9.126;2022-07-10T00:25:02;98814.06;;;18.47;100.00
19108;BME280;9686;48.832;9.126;2022-07-10T00:27:28;98812.28;;;18.47;100.00
19108;BME280;9686;48.832;9.126;2022-07-10T00:32:28;98809.56;;;18.51;100.00
19108;BME280;9686;48.832;9.126;2022-07-10T00:34:53;98797.97;;;18.56;100.00
19108;BME280;9686;48.832;9.126;2022-07-10T00:37:19;98794.47;;;18.56;100.00
19108;BME280;9686;48.832;9.126;2022-07-10T00:39:46;98798.69;;;18.61;100.00
19108;BME280;9686;48.832;9.126;2022-07-10T00:42:13;98795.94;;;18.66;100.00
19108;BME280;9686;48.832;9.126;2022-07-10T00:44:42;98805.84;;;18.58;100.00
19108;BME280;9686;48.832;9.126;2022-07-10T00:47:09;98806.66;;;18.60;100.00
19108;BME280;9686;48.832;9.126;2022-07-10T00:49:37;98810.13;;;18.62;100.00
19108;BME280;9686;48.832;9.126;2022-07-10T00:52:07;98809.56;;;18.51;100.00
19108;BME280;9686;48.832;9.126;2022-07-10T00:54:34;98817.56;;;18.47;100.00
19108;BME280;9686;48.832;9.126;2022-07-10T00:57:00;98805.25;;;18.46;100.00
19108;BME280;9686;48.832;9.126;2022-07-10T00:59:26;98806.22;;;18.44;100.00
19108;BME280;9686;48.832;9.126;2022-07-10T01:12:53;98798.84;;;18.26;100.00
19108;BME280;9686;48.832;9.126;2022-07-10T01:15:19;98802.53;;;18.18;100.00
19108;BME280;9686;48.832;9.126;2022-07-10T01:17:44;98798.06;;;18.21;100.00
19108;BME280;9686;48.832;9.126;2022-07-10T01:22:44;98795.00;;;18.05;100.00
19108;BME280;9686;48.832;9.126;2022-07-10T01:25:10;98792.63;;;17.94;100.00
19108;BME280;9686;48.832;9.126;2022-07-10T01:27:36;98793.34;;;18.01;100.00
19108;BME280;9686;48.832;9.126;2022-07-10T01:32:40;98792.41;;;18.03;100.00
19108;BME280;9686;48.832;9.126;2022-07-10T01:35:06;98798.59;;;18.02;100.00
19108;BME280;9686;48.832;9.126;2022-07-10T01:37:32;98787.34;;;17.94;100.00
19108;BME280;9686;48.832;9.126;2022-07-10T01:42:33;98791.72;;;17.97;100.00
19108;BME280;9686;48.832;9.126;2022-07-10T01:45:02;98782.88;;;17.98;100.00
19108;BME280;9686;48.832;9.126;2022-07-10T01:47:27;98780.25;;;17.98;100.00
19108;BME280;9686;48.832;9.126;2022-07-10T01:49:53;98791.88;;;17.89;100.00
19108;BME280;9686;48.832;9.126;2022-07-10T01:52:19;98792.75;;;17.90;100.00
19108;BME280;9686;48.832;9.126;2022-07-10T01:54:45;98794.78;;;17.80;100.00
19108;BME280;9686;48.832;9.126;2022-07-10T01:57:10;98792.13;;;17.80;100.00
19108;BME280;9686;48.832;9.126;2022-07-10T02:05:52;98786.25;;;17.69;100.00
19108;BME280;9686;48.832;9.126;2022-07-10T02:08:18;98785.50;;;17.62;100.00
19108;BME280;9686;48.832;9.126;2022-07-10T02:10:52;98786.25;;;17.69;100.00
19108;BME280;9686;48.832;9.126;2022-07-10T02:13:19;98782.75;;;17.68;100.00
19108;BME280;9686;48.832;9.126;2022-07-10T02:15:46;98785.75;;;17.53;100.00
19108;BME280;9686;48.832;9.126;2022-07-10T02:18:12;98788.19;;;17.61;100.00
19108;BME280;9686;48.832;9.126;2022-07-10T02:20:38;98790.63;;;17.71;100.00
19108;BME280;9686;48.832;9.126;2022-07-10T02:23:03;98792.38;;;17.71;100.00
19108;BME280;9686;48.832;9.126;2022-07-10T02:25:29;98785.38;;;17.68;100.00
19108;BME280;9686;48.832;9.126;2022-07-10T02:27:54;98801.81;;;17.79;100.00
19108;BME280;9686;48.832;9.126;2022-07-10T02:32:54;98806.09;;;17.83;100.00
19108;BME280;9686;48.832;9.126;2022-07-10T02:35:20;98807.91;;;17.81;100.00
19108;BME280;9686;48.832;9.126;2022-07-10T02:37:46;98808.94;;;17.76;100.00
19108;BME280;9686;48.832;9.126;2022-07-10T02:45:44;98813.03;;;17.87;100.00
19108;BME280;9686;48.832;9.126;2022-07-10T02:48:09;98802.44;;;17.89;100.00
19108;BME280;9686;48.832;9.126;2022-07-10T02:50:35;98803.59;;;17.79;100.00
19108;BME280;9686;48.832;9.126;2022-07-10T02:53:00;98808.88;;;17.79;100.00
19108;BME280;9686;48.832;9.126;2022-07-10T02:55:26;98810.56;;;17.81;100.00
19108;BME280;9686;48.832;9.126;2022-07-10T02:57:51;98816.63;;;17.85;100.00
19108;BME280;9686;48.832;9.126;2022-07-10T03:02:53;98812.28;;;17.82;100.00
19108;BME280;9686;48.832;9.126;2022-07-10T03:05:19;98819.25;;;17.85;100.00
19108;BME280;9686;48.832;9.126;2022-07-10T03:07:44;98814.06;;;17.82;100.00
19108;BME280;9686;48.832;9.126;2022-07-10T03:10:09;98814.03;;;17.83;100.00
19108;BME280;9686;48.832;9.126;2022-07-10T03:12:35;98813.03;;;17.87;100.00
19108;BME280;9686;48.832;9.126;2022-07-10T03:15:02;98815.91;;;17.78;100.00
19108;BME280;9686;48.832;9.126;2022-07-10T03:17:27;98810.41;;;17.87;100.00
19108;BME280;9686;48.832;9.126;2022-07-10T03:22:28;98821.19;;;17.78;100.00
19108;BME280;9686;48.832;9.126;2022-07-10T03:24:54;98826.47;;;17.78;100.00
19108;BME280;9686;48.832;9.126;2022-07-10T03:27:19;98819.47;;;17.77;100.00
19108;BME280;9686;48.832;9.126;2022-07-10T03:38:47;98815.22;;;17.72;100.00
19108;BME280;9686;48.832;9.126;2022-07-10T03:41:18;98818.75;;;17.71;100.00
19108;BME280;9686;48.832;9.126;2022-07-10T03:43:43;98815.25;;;17.69;100.00
19108;BME280;9686;48.832;9.126;2022-07-10T03:46:09;98826.00;;;17.60;100.00
19108;BME280;9686;48.832;9.126;2022-07-10T03:48:34;98828.44;;;17.69;100.00
19108;BME280;9686;48.832;9.126;2022-07-10T03:53:35;98817.84;;;17.72;100.00
19108;BME280;9686;48.832;9.126;2022-07-10T03:56:01;98829.31;;;17.69;100.00
19108;BME280;9686;48.832;9.126;2022-07-10T03:58:26;98814.34;;;17.71;100.00
19108;BME280;9686;48.832;9.126;2022-07-10T04:03:39;98815.91;;;17.78;100.00
19108;BME280;9686;48.832;9.126;2022-07-10T04:06:05;98825.56;;;17.79;100.00
19108;BME280;9686;48.832;9.126;2022-07-10T04:08:30;98820.84;;;17.91;100.00
19108;BME280;9686;48.832;9.126;2022-07-10T04:10:55;98819.25;;;17.85;100.00
19108;BME280;9686;48.832;9.126;2022-07-10T04:13:21;98824.66;;;17.80;100.00
19108;BME280;9686;48.832;9.126;2022-07-10T04:15:46;98821.81;;;17.88;100.00
19108;BME280;9686;48.832;9.126;2022-07-10T04:18:11;98816.69;;;17.82;100.00
19108;BME280;9686;48.832;9.126;2022-07-10T04:20:37;98818.44;;;17.83;100.00
19108;BME280;9686;48.832;9.126;2022-07-10T04:23:02;98811.13;;;17.93;100.00
19108;BME280;9686;48.832;9.126;2022-07-10T04:25:27;98819.22;;;17.86;100.00
19108;BME280;9686;48.832;9.126;2022-07-10T04:27:52;98820.16;;;17.84;100.00
19108;BME280;9686;48.832;9.126;2022-07-10T04:32:53;98816.13;;;17.71;100.00
19108;BME280;9686;48.832;9.126;2022-07-10T04:35:19;98820.38;;;17.76;100.00
19108;BME280;9686;48.832;9.126;2022-07-10T04:37:44;98820.53;;;17.70;100.00
19108;BME280;9686;48.832;9.126;2022-07-10T04:45:20;98825.06;;;17.62;100.00
19108;BME280;9686;48.832;9.126;2022-07-10T04:47:46;98822.81;;;17.47;100.00
19108;BME280;9686;48.832;9.126;2022-07-10T04:50:11;98820.88;;;17.53;100.00
19108;BME280;9686;48.832;9.126;2022-07-10T04:52:36;98825.47;;;17.47;100.00
19108;BME280;9686;48.832;9.126;2022-07-10T04:55:02;98827.59;;;17.67;100.00
19108;BME280;9686;48.832;9.126;2022-07-10T04:57:27;98830.22;;;17.67;100.00
19108;BME280;9686;48.832;9.126;2022-07-10T05:02:34;98829.31;;;17.71;100.00
19108;BME280;9686;48.832;9.126;2022-07-10T05:04:59;98821.34;;;17.72;100.00
19108;BME280;9686;48.832;9.126;2022-07-10T05:07:25;98822.97;;;17.78;100.00
19108;BME280;9686;48.832;9.126;2022-07-10T05:17:35;98828.22;;;17.78;100.00
19108;BME280;9686;48.832;9.126;2022-07-10T05:22:36;98831.03;;;17.72;100.00
19108;BME280;9686;48.832;9.126;2022-07-10T05:25:01;98829.09;;;17.78;100.00
19108;BME280;9686;48.832;9.126;2022-07-10T05:27:27;98833.31;;;17.85;100.00
19108;BME280;9686;48.832;9.126;2022-07-10T05:32:46;98830.66;;;17.85;100.00
19108;BME280;9686;48.832;9.126;2022-07-10T05:35:13;98838.50;;;17.88;100.00
19108;BME280;9686;48.832;9.126;2022-07-10T05:37:39;98835.00;;;17.88;100.00
19108;BME280;9686;48.832;9.126;2022-07-10T05:40:05;98838.38;;;17.93;100.00
19108;BME280;9686;48.832;9.126;2022-07-10T05:42:30;98843.41;;;18.04;100.00
19108;BME280;9686;48.832;9.126;2022-07-10T05:44:55;98844.06;;;18.12;100.00
19108;BME280;9686;48.832;9.126;2022-07-10T05:47:21;98843.88;;;18.18;100.00
19108;BME280;9686;48.832;9.126;2022-07-10T05:49:46;98852.72;;;18.17;100.00
19108;BME280;9686;48.832;9.126;2022-07-10T05:52:11;98853.19;;;18.33;100.00
19108;BME280;9686;48.832;9.126;2022-07-10T05:54:38;98855.47;;;18.45;100.00
19108;BME280;9686;48.832;9.126;2022-07-10T05:57:03;98861.53;;;18.50;100.00
19108;BME280;9686;48.832;9.126;2022-07-10T05:59:30;98865.13;;;18.46;100.00
19108;BME280;9686;48.832;9.126;2022-07-10T06:01:57;98864.41;;;18.41;100.00
19108;BME280;9686;48.832;9.126;2022-07-10T06:04:23;98869.16;;;18.28;100.00
19108;BME280;9686;48.832;9.126;2022-07-10T06:06:48;98866.50;;;18.28;100.00
19108;BME280;9686;48.832;9.126;2022-07-10T06:09:13;98867.22;;;18.35;100.00
19108;BME280;9686;48.832;9.126;2022-07-10T06:11:39;98866.38;;;18.33;100.00
19108;BME280;9686;48.832;9.126;2022-07-10T06:14:07;98862.00;;;18.32;100.00
19108;BME280;9686;48.832;9.126;2022-07-10T06:16:32;98867.22;;;18.35;100.00
19108;BME280;9686;48.832;9.126;2022-07-10T06:18:57;98867.25;;;18.33;100.00
19108;BME280;9686;48.832;9.126;2022-07-10T06:21:23;98861.22;;;18.28;100.00
19108;BME280;9686;48.832;9.126;2022-07-10T06:23:48;98861.81;;;18.39;100.00
19108;BME280;9686;48.832;9.126;2022-07-10T06:26:14;98870.75;;;18.34;100.00
19108;BME280;9686;48.832;9.126;2022-07-10T06:28:39;98867.81;;;18.44;100.00
19108;BME280;9686;48.832;9.126;2022-07-10T06:31:05;98868.53;;;18.51;100.00
19108;BME280;9686;48.832;9.126;2022-07-10T06:33:30;98871.09;;;18.54;100.00
19108;BME280;9686;48.832;9.126;2022-07-10T06:35:57;98872.28;;;18.42;100.00
19108;BME280;9686;48.832;9.126;2022-07-10T06:38:22;98881.94;;;18.43;100.00
19108;BME280;9686;48.832;9.126;2022-07-10T06:40:47;98879.91;;;18.53;100.00
19108;BME280;9686;48.832;9.126;2022-07-10T06:43:13;98886.25;;;18.46;100.00
19108;BME280;9686;48.832;9.126;2022-07-10T06:45:39;98881.00;;;18.44;100.00
19108;BME280;9686;48.832;9.126;2022-07-10T06:48:05;98888.66;;;18.55;100.00
19108;BME280;9686;48.832;9.126;2022-07-10T06:50:31;98879.84;;;18.56;100.00
19108;BME280;9686;48.832;9.126;2022-07-10T06:53:01;98878.84;;;18.60;100.00
19108;BME280;9686;48.832;9.126;2022-07-10T06:55:27;98878.84;;;18.60;100.00
19108;BME280;9686;48.832;9.126;2022-07-10T06:57:54;98889.41;;;18.60;100.00
19108;BME280;9686;48.832;9.126;2022-07-10T07:00:19;98896.91;;;18.77;100.00
19108;BME280;9686;48.832;9.126;2022-07-10T07:02:45;98891.91;;;18.66;100.00
19108;BME280;9686;48.832;9.126;2022-07-10T07:05:10;98887.97;;;18.47;100.00
19108;BME280;9686;48.832;9.126;2022-07-10T07:07:36;98886.34;;;18.43;100.00
19108;BME280;9686;48.832;9.126;2022-07-10T07:10:03;98890.06;;;18.36;100.00
19108;BME280;9686;48.832;9.126;2022-07-10T07:12:28;98889.81;;;18.45;100.00
19108;BME280;9686;48.832;9.126;2022-07-10T07:14:54;98893.09;;;18.55;100.00
19108;BME280;9686;48.832;9.126;2022-07-10T07:17:19;98892.00;;;18.62;100.00
19108;BME280;9686;48.832;9.126;2022-07-10T07:19:49;98903.09;;;18.76;100.00
19108;BME280;9686;48.832;9.126;2022-07-10T07:22:33;98896.84;;;18.78;100.00
19108;BME280;9686;48.832;9.126;2022-07-10T07:25:18;98904.75;;;18.80;100.00
19108;BME280;9686;48.832;9.126;2022-07-10T07:27:43;98907.28;;;18.83;100.00
19108;BME280;9686;48.832;9.126;2022-07-10T07:30:11;98910.84;;;18.82;100.00
19108;BME280;9686;48.832;9.126;2022-07-10T07:32:38;98907.50;;;18.75;100.00
19108;BME280;9686;48.832;9.126;2022-07-10T07:35:04;98915.66;;;18.66;100.00
19108;BME280;9686;48.832;9.126;2022-07-10T07:37:37;98914.56;;;18.75;100.00
19108;BME280;9686;48.832;9.126;2022-07-10T07:40:04;98908.28;;;18.79;100.00
19108;BME280;9686;48.832;9.126;2022-07-10T07:42:30;98908.16;;;18.84;100.00
19108;BME280;9686;48.832;9.126;2022-07-10T07:44:55;98900.88;;;18.92;100.00
19108;BME280;9686;48.832;9.126;2022-07-10T07:47:20;98904.56;;;18.86;100.00
19108;BME280;9686;48.832;9.126;2022-07-10T07:49:46;98907.09;;;18.89;100.00
19108;BME280;9686;48.832;9.126;2022-07-10T07:52:11;98904.56;;;18.86;100.00
19108;BME280;9686;48.832;9.126;2022-07-10T07:54:37;98905.47;;;18.85;100.00
19108;BME280;9686;48.832;9.126;2022-07-10T07:57:02;98907.75;;;18.97;100.00
19108;BME280;9686;48.832;9.126;2022-07-10T07:59:27;98903.19;;;19.04;100.00
19108;BME280;9686;48.832;9.126;2022-07-10T08:01:53;98904.34;;;19.23;100.00
19108;BME280;9686;48.832;9.126;2022-07-10T08:04:18;98896.19;;;19.31;100.00
19108;BME280;9686;48.832;9.126;2022-07-10T08:06:43;98898.84;;;19.31;100.00
19108;BME280;9686;48.832;9.126;2022-07-10T08:09:09;98897.69;;;19.39;100.00
19108;BME280;9686;48.832;9.126;2022-07-10T08:11:34;98893.28;;;19.40;100.00
19108;BME280;9686;48.832;9.126;2022-07-10T08:13:59;98894.44;;;19.31;100.00
19108;BME280;9686;48.832;9.126;2022-07-10T08:16:25;98892.31;;;19.42;100.00
19108;BME280;9686;48.832;9.126;2022-07-10T08:18:50;98897.34;;;19.50;100.00
19108;BME280;9686;48.832;9.126;2022-07-10T08:21:16;98887.63;;;19.52;100.00
19108;BME280;9686;48.832;9.126;2022-07-10T08:23:41;98894.75;;;19.49;100.00
19108;BME280;9686;48.832;9.126;2022-07-10T08:26:06;98893.66;;;19.57;100.00
19108;BME280;9686;48.832;9.126;2022-07-10T08:28:32;98882.16;;;19.58;100.00
19108;BME280;9686;48.832;9.126;2022-07-10T08:30:57;98885.84;;;19.51;93.87
19108;BME280;9686;48.832;9.126;2022-07-10T08:33:22;98882.34;;;19.51;100.00
19108;BME280;9686;48.832;9.126;2022-07-10T08:35:48;98879.63;;;19.55;85.79
19108;BME280;9686;48.832;9.126;2022-07-10T08:38:13;98874.94;;;19.63;91.80
19108;BME280;9686;48.832;9.126;2022-07-10T08:40:39;98877.19;;;19.76;93.81
19108;BME280;9686;48.832;9.126;2022-07-10T08:43:05;98881.03;;;19.65;88.05
19108;BME280;9686;48.832;9.126;2022-07-10T08:45:32;98877.84;;;19.56;83.62
19108;BME280;9686;48.832;9.126;2022-07-10T08:48:02;98878.81;;;19.52;92.45
19108;BME280;9686;48.832;9.126;2022-07-10T08:50:32;98872.28;;;19.63;87.84
19108;BME280;9686;48.832;9.126;2022-07-10T08:53:04;98870.78;;;19.83;89.38
19108;BME280;9686;48.832;9.126;2022-07-10T08:55:32;98871.84;;;19.77;88.51
19108;BME280;9686;48.832;9.126;2022-07-10T08:57:59;98870.94;;;19.78;85.77
19108;BME280;9686;48.832;9.126;2022-07-10T09:00:25;98879.88;;;19.74;93.26
19108;BME280;9686;48.832;9.126;2022-07-10T09:02:50;98873.72;;;19.74;88.42
19108;BME280;9686;48.832;9.126;2022-07-10T09:05:15;98876.03;;;19.84;96.14
19108;BME280;9686;48.832;9.126;2022-07-10T09:07:41;98873.44;;;19.83;88.88
19108;BME280;9686;48.832;9.126;2022-07-10T09:10:10;98871.13;;;19.98;83.19
19108;BME280;9686;48.832;9.126;2022-07-10T09:12:58;98875.31;;;20.06;79.66
19108;BME280;9686;48.832;9.126;2022-07-10T09:15:25;98872.41;;;20.13;74.44
19108;BME280;9686;48.832;9.126;2022-07-10T09:17:59;98872.19;;;20.19;79.86
19108;BME280;9686;48.832;9.126;2022-07-10T09:20:34;98875.31;;;20.32;80.63
19108;BME280;9686;48.832;9.126;2022-07-10T09:23:14;98876.25;;;20.29;83.84
19108;BME280;9686;48.832;9.126;2022-07-10T09:25:40;98882.84;;;20.44;76.06
19108;BME280;9686;48.832;9.126;2022-07-10T09:28:05;98880.38;;;20.38;74.55
19108;BME280;9686;48.832;9.126;2022-07-10T09:30:35;98878.00;;;20.55;79.00
19108;BME280;9686;48.832;9.126;2022-07-10T09:33:19;98874.03;;;20.69;82.36
19108;BME280;9686;48.832;9.126;2022-07-10T09:41:25;98882.56;;;20.25;77.20
19108;BME280;9686;48.832;9.126;2022-07-10T09:44:05;98874.09;;;20.42;72.09
19108;BME280;9686;48.832;9.126;2022-07-10T09:46:39;98872.72;;;20.30;68.12
19108;BME280;9686;48.832;9.126;2022-07-10T09:51:33;98879.28;;;20.45;72.09
19108;BME280;9686;48.832;9.126;2022-07-10T09:54:03;98872.81;;;20.52;70.89
19108;BME280;9686;48.832;9.126;2022-07-10T09:56:33;98889.88;;;20.70;74.63
19108;BME280;9686;48.832;9.126;2022-07-10T09:59:00;98895.09;;;20.72;70.31
19108;BME280;9686;48.832;9.126;2022-07-10T10:01:27;98887.66;;;20.58;68.20
19108;BME280;9686;48.832;9.126;2022-07-10T10:03:53;98883.06;;;20.63;71.02
19108;BME280;9686;48.832;9.126;2022-07-10T10:06:19;98878.19;;;20.51;71.61
19108;BME280;9686;48.832;9.126;2022-07-10T10:09:03;98874.81;;;20.71;71.36
19108;BME280;9686;48.832;9.126;2022-07-10T10:11:32;98877.81;;;20.61;71.93
19108;BME280;9686;48.832;9.126;2022-07-10T10:13:57;98880.41;;;20.63;68.78
19108;BME280;9686;48.832;9.126;2022-07-10T10:16:24;98881.91;;;20.70;68.52
19108;BME280;9686;48.832;9.126;2022-07-10T10:18:51;98875.41;;;20.79;72.63
19108;BME280;9686;48.832;9.126;2022-07-10T10:21:36;98876.06;;;20.85;70.46
19108;BME280;9686;48.832;9.126;2022-07-10T10:24:02;98872.94;;;20.98;63.29
19108;BME280;9686;48.832;9.126;2022-07-10T10:26:28;98873.94;;;20.95;63.06
19108;BME280;9686;48.832;9.126;2022-07-10T10:28:56;98868.50;;;20.98;63.81
19108;BME280;9686;48.832;9.126;2022-07-10T10:31:23;98865.53;;;20.84;63.26
19108;BME280;9686;48.832;9.126;2022-07-10T10:33:48;98868.06;;;20.87;65.80
19108;BME280;9686;48.832;9.126;2022-07-10T10:39:12;98858.03;;;20.95;62.86
19108;BME280;9686;48.832;9.126;2022-07-10T10:41:45;98858.47;;;21.06;68.75
19108;BME280;9686;48.832;9.126;2022-07-10T10:49:16;98851.41;;;21.74;56.74
19108;BME280;9686;48.832;9.126;2022-07-10T10:52:03;98851.59;;;21.69;56.77
19108;BME280;9686;48.832;9.126;2022-07-10T10:54:30;98850.13;;;21.62;53.23
19108;BME280;9686;48.832;9.126;2022-07-10T10:57:34;98849.81;;;21.70;54.49
19108;BME280;9686;48.832;9.126;2022-07-10T11:00:04;98836.09;;;21.80;52.58
19108;BME280;9686;48.832;9.126;2022-07-10T11:02:37;98851.66;;;21.90;55.51
19108;BME280;9686;48.832;9.126;2022-07-10T11:13:05;98851.81;;;22.07;52.57
19108;BME280;9686;48.832;9.126;2022-07-10T11:15:36;98852.94;;;22.01;54.07
19108;BME280;9686;48.832;9.126;2022-07-10T11:18:21;98857.28;;;22.04;52.67
19108;BME280;9686;48.832;9.126;2022-07-10T11:20:54;98847.81;;;21.97;51.21
19108;BME280;9686;48.832;9.126;2022-07-10T11:24:27;98845.97;;;21.99;53.88
19108;BME280;9686;48.832;9.126;2022-07-10T11:26:59;98855.78;;;21.97;54.48
19108;BME280;9686;48.832;9.126;2022-07-10T11:29:27;98843.13;;;21.81;56.06
19108;BME280;9686;48.832;9.126;2022-07-10T11:31:53;98850.00;;;21.65;51.43
19108;BME280;9686;48.832;9.126;2022-07-10T11:34:19;98843.03;;;21.41;52.56
19108;BME280;9686;48.832;9.126;2022-07-10T11:36:47;98836.06;;;21.38;58.37
19108;BME280;9686;48.832;9.126;2022-07-10T11:39:13;98834.28;;;21.61;52.74
19108;BME280;9686;48.832;9.126;2022-07-10T11:41:42;98844.44;;;21.71;52.29
19108;BME280;9686;48.832;9.126;2022-07-10T11:44:14;98836.97;;;21.59;54.42
19108;BME280;9686;48.832;9.126;2022-07-10T11:46:40;98836.03;;;21.82;51.31
19108;BME280;9686;48.832;9.126;2022-07-10T11:49:09;98843.13;;;21.60;51.29
19108;BME280;9686;48.832;9.126;2022-07-10T11:51:37;98841.41;;;21.59;53.71
19108;BME280;9686;48.832;9.126;2022-07-10T11:56:41;98835.19;;;22.02;48.97
19108;BME280;9686;48.832;9.126;2022-07-10T11:59:09;98822.91;;;22.21;48.19
19108;BME280;9686;48.832;9.126;2022-07-10T12:01:42;98834.59;;;22.17;51.10
19108;BME280;9686;48.832;9.126;2022-07-10T12:06:45;98833.06;;;21.90;47.28
19108;BME280;9686;48.832;9.126;2022-07-10T12:09:13;98842.50;;;21.97;47.19
19108;BME280;9686;48.832;9.126;2022-07-10T12:11:39;98839.19;;;21.92;46.28
19108;BME280;9686;48.832;9.126;2022-07-10T12:21:51;98827.00;;;22.49;46.74
19108;BME280;9686;48.832;9.126;2022-07-10T12:37:13;98825.84;;;22.95;42.89
19108;BME280;9686;48.832;9.126;2022-07-10T12:39:52;98829.78;;;23.05;45.27
19108;BME280;9686;48.832;9.126;2022-07-10T12:42:29;98834.88;;;23.10;43.42
19108;BME280;9686;48.832;9.126;2022-07-10T12:45:14;98829.78;;;23.05;45.86
19108;BME280;9686;48.832;9.126;2022-07-10T12:47:44;98828.19;;;23.01;43.74
19108;BME280;9686;48.832;9.126;2022-07-10T12:50:12;98835.72;;;23.10;42.91
19108;BME280;9686;48.832;9.126;2022-07-10T12:52:38;98824.38;;;23.06;41.64
19108;BME280;9686;48.832;9.126;2022-07-10T13:03:16;98827.53;;;23.33;43.11
19108;BME280;9686;48.832;9.126;2022-07-10T13:21:22;98827.03;;;23.44;43.00
19108;BME280;9686;48.832;9.126;2022-07-10T13:31:33;98821.56;;;23.47;42.22
19108;BME280;9686;48.832;9.126;2022-07-10T13:39:09;98830.44;;;24.86;41.61
19108;BME280;9686;48.832;9.126;2022-07-10T13:41:34;98827.56;;;24.40;41.04
19108;BME280;9686;48.832;9.126;2022-07-10T13:49:17;98817.94;;;23.67;40.98
19108;BME280;9686;48.832;9.126;2022-07-10T13:51:42;98828.03;;;23.60;41.33
19108;BME280;9686;48.832;9.126;2022-07-10T14:09:38;98826.09;;;23.45;41.00
19108;BME280;9686;48.832;9.126;2022-07-10T14:12:04;98830.78;;;23.59;43.79
19108;BME280;9686;48.832;9.126;2022-07-10T14:20:15;98830.91;;;23.37;40.59
19108;BME280;9686;48.832;9.126;2022-07-10T14:23:07;98838.16;;;23.52;43.06
19108;BME280;9686;48.832;9.126;2022-07-10T14:25:32;98832.13;;;23.49;41.18
19108;BME280;9686;48.832;9.126;2022-07-10T14:27:57;98825.44;;;23.59;42.10
19108;BME280;9686;48.832;9.126;2022-07-10T14:30:23;98828.25;;;23.56;42.84
19108;BME280;9686;48.832;9.126;2022-07-10T14:32:48;98819.56;;;23.33;41.70
19108;BME280;9686;48.832;9.126;2022-07-10T14:37:49;98820.53;;;23.50;44.30
19108;BME280;9686;48.832;9.126;2022-07-10T14:40:14;98816.00;;;23.52;41.82
19108;BME280;9686;48.832;9.126;2022-07-10T14:42:39;98817.81;;;23.51;44.35
19108;BME280;9686;48.832;9.126;2022-07-10T14:50:15;98821.72;;;23.06;42.09
19108;BME280;9686;48.832;9.126;2022-07-10T14:52:42;98828.75;;;23.07;42.58
19108;BME280;9686;48.832;9.126;2022-07-10T15:05:28;98812.88;;;23.06;39.80
19108;BME280;9686;48.832;9.126;2022-07-10T15:07:53;98828.19;;;23.01;40.45
19108;BME280;9686;48.832;9.126;2022-07-10T15:10:18;98819.34;;;23.00;41.49
19108;BME280;9686;48.832;9.126;2022-07-10T15:12:45;98816.69;;;23.00;41.50
19108;BME280;9686;48.832;9.126;2022-07-10T15:30:51;98800.59;;;23.22;40.59
19108;BME280;9686;48.832;9.126;2022-07-10T15:33:16;98795.56;;;23.16;39.62
19108;BME280;9686;48.832;9.126;2022-07-10T15:35:41;98801.59;;;23.20;42.11
19108;BME280;9686;48.832;9.126;2022-07-10T15:38:07;98803.09;;;23.25;42.37
19108;BME280;9686;48.832;9.126;2022-07-10T15:40:32;98804.81;;;23.26;42.23
19108;BME280;9686;48.832;9.126;2022-07-10T15:42:58;98797.31;;;23.34;41.00
19108;BME280;9686;48.832;9.126;2022-07-10T15:58:55;98788.06;;;23.24;41.02
19108;BME280;9686;48.832;9.126;2022-07-10T16:01:21;98788.78;;;23.28;40.99
19108;BME280;9686;48.832;9.126;2022-07-10T16:29:38;98776.78;;;23.19;41.09
19108;BME280;9686;48.832;9.126;2022-07-10T16:32:04;98769.84;;;23.34;40.98
19108;BME280;9686;48.832;9.126;2022-07-10T16:34:29;98766.75;;;23.43;41.31
19108;BME280;9686;48.832;9.126;2022-07-10T16:36:54;98775.88;;;23.37;40.77
19108;BME280;9686;48.832;9.126;2022-07-10T16:39:20;98784.47;;;23.44;42.10
19108;BME280;9686;48.832;9.126;2022-07-10T16:41:45;98784.81;;;23.36;42.03
19108;BME280;9686;48.832;9.126;2022-07-10T16:46:45;98785.56;;;23.21;41.77
19108;BME280;9686;48.832;9.126;2022-07-10T16:49:11;98775.19;;;23.15;41.12
19108;BME280;9686;48.832;9.126;2022-07-10T16:51:36;98777.84;;;23.34;39.81
19108;BME280;9686;48.832;9.126;2022-07-10T17:01:47;98769.97;;;23.68;40.39
19108;BME280;9686;48.832;9.126;2022-07-10T17:22:19;98760.94;;;23.35;44.36
19108;BME280;9686;48.832;9.126;2022-07-10T17:27:19;98763.94;;;23.46;42.46
19108;BME280;9686;48.832;9.126;2022-07-10T17:29:45;98772.22;;;23.76;42.73
19108;BME280;9686;48.832;9.126;2022-07-10T17:32:12;98770.81;;;23.86;44.34
19108;BME280;9686;48.832;9.126;2022-07-10T17:42:23;98770.56;;;24.25;43.33
19108;BME280;9686;48.832;9.126;2022-07-10T17:44:49;98772.06;;;24.48;43.80
19108;BME280;9686;48.832;9.126;2022-07-10T17:47:14;98774.00;;;24.27;43.97
19108;BME280;9686;48.832;9.126;2022-07-10T17:49:39;98783.69;;;23.95;42.54
19108;BME280;9686;48.832;9.126;2022-07-10T17:52:05;98785.59;;;23.57;43.15
19108;BME280;9686;48.832;9.126;2022-07-10T17:59:40;98788.44;;;22.98;43.34
19108;BME280;9686;48.832;9.126;2022-07-10T18:02:07;98791.06;;;22.79;45.27
19108;BME280;9686;48.832;9.126;2022-07-10T18:12:17;98795.47;;;22.21;47.13
19108;BME280;9686;48.832;9.126;2022-07-10T18:19:53;98797.84;;;21.86;50.97
19108;BME280;9686;48.832;9.126;2022-07-10T18:22:22;98795.91;;;21.90;51.13
19108;BME280;9686;48.832;9.126;2022-07-10T18:37:44;98801.13;;;21.49;53.15
19108;BME280;9686;48.832;9.126;2022-07-10T18:40:09;98797.34;;;21.54;52.35
19108;BME280;9686;48.832;9.126;2022-07-10T18:42:35;98802.38;;;21.40;59.59